sensor_id;sensor_type;location;lat;lon;timestamp;P1;durP1;ratioP1;P2;durP2;ratioP2
20084;SDS011;10202;48.474;9.138;2023-03-19T00:00:50;16.38;;;7.55;;
20084;SDS011;10202;48.474;9.138;2023-03-19T00:03:20;10.98;;;6.65;;
20084;SDS011;10202;48.474;9.138;2023-03-19T00:05:53;12.45;;;6.30;;
20084;SDS011;10202;48.474;9.138;2023-03-19T00:08:18;13.63;;;6.72;;
20084;SDS011;10202;48.474;9.138;2023-03-19T00:10:44;10.18;;;6.22;;
20084;SDS011;10202;48.474;9.138;2023-03-19T00:13:12;9.70;;;5.97;;
20084;SDS011;10202;48.474;9.138;2023-03-19T00:15:37;12.05;;;5.65;;
20084;SDS011;10202;48.474;9.138;2023-03-19T00:18:05;12.38;;;6.20;;
20084;SDS011;10202;48.474;9.138;2023-03-19T00:20:32;12.57;;;6.05;;
20084;SDS011;10202;48.474;9.138;2023-03-19T00:22:58;15.07;;;5.75;;
20084;SDS011;10202;48.474;9.138;2023-03-19T00:25:27;9.20;;;5.30;;
20084;SDS011;10202;48.474;9.138;2023-03-19T00:27:52;11.15;;;5.35;;
20084;SDS011;10202;48.474;9.138;2023-03-19T00:30:21;12.27;;;5.15;;
20084;SDS011;10202;48.474;9.138;2023-03-19T00:32:51;7.82;;;4.88;;
20084;SDS011;10202;48.474;9.138;2023-03-19T00:35:16;8.77;;;4.82;;
20084;SDS011;10202;48.474;9.138;2023-03-19T00:37:45;11.05;;;4.93;;
20084;SDS011;10202;48.474;9.138;2023-03-19T00:40:14;8.73;;;5.13;;
20084;SDS011;10202;48.474;9.138;2023-03-19T00:42:39;9.77;;;4.95;;
20084;SDS011;10202;48.474;9.138;2023-03-19T00:45:08;8.95;;;5.28;;
20084;SDS011;10202;48.474;9.138;2023-03-19T00:47:37;8.30;;;4.90;;
20084;SDS011;10202;48.474;9.138;2023-03-19T00:50:03;7.72;;;4.75;;
20084;SDS011;10202;48.474;9.138;2023-03-19T00:52:32;8.07;;;4.57;;
20084;SDS011;10202;48.474;9.138;2023-03-19T00:54:58;6.93;;;4.32;;
20084;SDS011;10202;48.474;9.138;2023-03-19T00:57:31;6.45;;;3.85;;
20084;SDS011;10202;48.474;9.138;2023-03-19T01:00:04;6.30;;;3.72;;
20084;SDS011;10202;48.474;9.138;2023-03-19T01:02:31;4.53;;;3.30;;
20084;SDS011;10202;48.474;9.138;2023-03-19T01:05:01;4.43;;;3.08;;
20084;SDS011;10202;48.474;9.138;2023-03-19T01:07:28;7.53;;;3.13;;
20084;SDS011;10202;48.474;9.138;2023-03-19T01:09:56;5.18;;;2.90;;
20084;SDS011;10202;48.474;9.138;2023-03-19T01:12:24;5.07;;;2.83;;
20084;SDS011;10202;48.474;9.138;2023-03-19T01:14:52;5.63;;;2.75;;
20084;SDS011;10202;48.474;9.138;2023-03-19T01:17:17;4.43;;;2.63;;
20084;SDS011;10202;48.474;9.138;2023-03-19T01:19:45;5.60;;;2.83;;
20084;SDS011;10202;48.474;9.138;2023-03-19T01:22:13;6.25;;;2.97;;
20084;SDS011;10202;48.474;9.138;2023-03-19T01:24:50;5.75;;;2.95;;
20084;SDS011;10202;48.474;9.138;2023-03-19T01:27:18;6.85;;;2.90;;
20084;SDS011;10202;48.474;9.138;2023-03-19T01:29:49;4.18;;;2.60;;
20084;SDS011;10202;48.474;9.138;2023-03-19T01:32:37;4.15;;;2.88;;
20084;SDS011;10202;48.474;9.138;2023-03-19T01:35:13;3.85;;;2.65;;
20084;SDS011;10202;48.474;9.138;2023-03-19T01:37:38;5.75;;;2.78;;
20084;SDS011;10202;48.474;9.138;2023-03-19T01:40:05;4.38;;;2.70;;
20084;SDS011;10202;48.474;9.138;2023-03-19T01:49:11;4.18;;;2.50;;
20084;SDS011;10202;48.474;9.138;2023-03-19T01:51:43;3.97;;;2.60;;
20084;SDS011;10202;48.474;9.138;2023-03-19T01:54:26;6.45;;;2.70;;
20084;SDS011;10202;48.474;9.138;2023-03-19T01:57:14;6.32;;;2.97;;
20084;SDS011;10202;48.474;9.138;2023-03-19T02:00:15;5.70;;;3.03;;
20084;SDS011;10202;48.474;9.138;2023-03-19T02:02:47;5.60;;;2.53;;
20084;SDS011;10202;48.474;9.138;2023-03-19T02:05:39;5.55;;;2.70;;
20084;SDS011;10202;48.474;9.138;2023-03-19T02:08:14;3.72;;;2.65;;
20084;SDS011;10202;48.474;9.138;2023-03-19T02:10:43;5.25;;;2.92;;
20084;SDS011;10202;48.474;9.138;2023-03-19T02:13:12;4.28;;;2.70;;
20084;SDS011;10202;48.474;9.138;2023-03-19T02:15:39;8.30;;;2.53;;
20084;SDS011;10202;48.474;9.138;2023-03-19T02:18:07;4.55;;;2.70;;
20084;SDS011;10202;48.474;9.138;2023-03-19T02:20:43;6.45;;;3.08;;
20084;SDS011;10202;48.474;9.138;2023-03-19T02:23:33;7.10;;;2.53;;
20084;SDS011;10202;48.474;9.138;2023-03-19T02:26:39;5.18;;;3.00;;
20084;SDS011;10202;48.474;9.138;2023-03-19T02:29:10;3.42;;;2.65;;
20084;SDS011;10202;48.474;9.138;2023-03-19T02:31:43;5.40;;;2.42;;
20084;SDS011;10202;48.474;9.138;2023-03-19T02:36:37;4.03;;;2.53;;
20084;SDS011;10202;48.474;9.138;2023-03-19T02:42:09;3.85;;;2.53;;
20084;SDS011;10202;48.474;9.138;2023-03-19T02:44:39;5.57;;;3.17;;
20084;SDS011;10202;48.474;9.138;2023-03-19T02:47:09;5.53;;;2.95;;
20084;SDS011;10202;48.474;9.138;2023-03-19T02:49:40;5.25;;;2.88;;
20084;SDS011;10202;48.474;9.138;2023-03-19T02:52:17;3.97;;;3.00;;
20084;SDS011;10202;48.474;9.138;2023-03-19T02:54:50;5.10;;;3.25;;
20084;SDS011;10202;48.474;9.138;2023-03-19T02:57:20;5.55;;;3.22;;
20084;SDS011;10202;48.474;9.138;2023-03-19T02:59:46;5.22;;;3.28;;
20084;SDS011;10202;48.474;9.138;2023-03-19T03:02:14;4.05;;;2.85;;
20084;SDS011;10202;48.474;9.138;2023-03-19T03:04:46;4.55;;;2.95;;
20084;SDS011;10202;48.474;9.138;2023-03-19T03:07:11;6.68;;;3.03;;
20084;SDS011;10202;48.474;9.138;2023-03-19T03:09:39;3.20;;;2.63;;
20084;SDS011;10202;48.474;9.138;2023-03-19T03:12:05;2.80;;;2.40;;
20084;SDS011;10202;48.474;9.138;2023-03-19T03:14:33;6.30;;;2.90;;
20084;SDS011;10202;48.474;9.138;2023-03-19T03:17:00;3.53;;;2.60;;
20084;SDS011;10202;48.474;9.138;2023-03-19T03:19:31;3.95;;;2.83;;
20084;SDS011;10202;48.474;9.138;2023-03-19T03:22:06;5.78;;;2.65;;
20084;SDS011;10202;48.474;9.138;2023-03-19T03:24:34;9.10;;;2.80;;
20084;SDS011;10202;48.474;9.138;2023-03-19T03:27:03;4.15;;;2.60;;
20084;SDS011;10202;48.474;9.138;2023-03-19T03:29:32;3.13;;;2.70;;
20084;SDS011;10202;48.474;9.138;2023-03-19T03:32:00;3.90;;;2.75;;
20084;SDS011;10202;48.474;9.138;2023-03-19T03:34:28;4.40;;;2.78;;
20084;SDS011;10202;48.474;9.138;2023-03-19T03:36:56;3.45;;;2.50;;
20084;SDS011;10202;48.474;9.138;2023-03-19T03:39:22;6.80;;;3.35;;
20084;SDS011;10202;48.474;9.138;2023-03-19T03:41:47;4.72;;;3.25;;
20084;SDS011;10202;48.474;9.138;2023-03-19T03:44:13;6.45;;;3.08;;
20084;SDS011;10202;48.474;9.138;2023-03-19T03:46:43;5.78;;;3.15;;
20084;SDS011;10202;48.474;9.138;2023-03-19T03:49:11;5.30;;;3.40;;
20084;SDS011;10202;48.474;9.138;2023-03-19T03:51:41;5.13;;;3.00;;
20084;SDS011;10202;48.474;9.138;2023-03-19T03:54:12;5.47;;;3.40;;
20084;SDS011;10202;48.474;9.138;2023-03-19T03:56:39;4.57;;;3.20;;
20084;SDS011;10202;48.474;9.138;2023-03-19T03:59:06;7.38;;;3.10;;
20084;SDS011;10202;48.474;9.138;2023-03-19T04:01:42;5.10;;;3.78;;
20084;SDS011;10202;48.474;9.138;2023-03-19T04:04:11;6.70;;;3.53;;
20084;SDS011;10202;48.474;9.138;2023-03-19T04:06:39;4.53;;;3.35;;
20084;SDS011;10202;48.474;9.138;2023-03-19T04:09:23;5.28;;;3.17;;
20084;SDS011;10202;48.474;9.138;2023-03-19T04:11:53;4.03;;;3.00;;
20084;SDS011;10202;48.474;9.138;2023-03-19T04:14:23;4.47;;;2.75;;
20084;SDS011;10202;48.474;9.138;2023-03-19T04:16:52;4.63;;;2.80;;
20084;SDS011;10202;48.474;9.138;2023-03-19T04:19:17;6.10;;;3.00;;
20084;SDS011;10202;48.474;9.138;2023-03-19T04:21:48;5.22;;;3.58;;
20084;SDS011;10202;48.474;9.138;2023-03-19T04:24:14;9.98;;;6.38;;
20084;SDS011;10202;48.474;9.138;2023-03-19T04:26:40;9.57;;;6.07;;
20084;SDS011;10202;48.474;9.138;2023-03-19T04:29:06;7.32;;;5.00;;
20084;SDS011;10202;48.474;9.138;2023-03-19T04:31:36;6.88;;;4.88;;
20084;SDS011;10202;48.474;9.138;2023-03-19T04:34:04;7.18;;;4.70;;
20084;SDS011;10202;48.474;9.138;2023-03-19T04:36:34;7.53;;;3.92;;
20084;SDS011;10202;48.474;9.138;2023-03-19T04:39:03;6.53;;;4.00;;
20084;SDS011;10202;48.474;9.138;2023-03-19T04:41:32;3.70;;;2.88;;
20084;SDS011;10202;48.474;9.138;2023-03-19T04:44:21;5.88;;;2.72;;
20084;SDS011;10202;48.474;9.138;2023-03-19T04:46:56;6.82;;;2.20;;
20084;SDS011;10202;48.474;9.138;2023-03-19T04:49:30;2.83;;;2.45;;
20084;SDS011;10202;48.474;9.138;2023-03-19T04:51:59;6.55;;;2.30;;
20084;SDS011;10202;48.474;9.138;2023-03-19T04:54:25;3.00;;;1.83;;
20084;SDS011;10202;48.474;9.138;2023-03-19T04:56:56;3.67;;;2.08;;
20084;SDS011;10202;48.474;9.138;2023-03-19T04:59:31;3.85;;;1.70;;
20084;SDS011;10202;48.474;9.138;2023-03-19T05:01:59;4.45;;;1.85;;
20084;SDS011;10202;48.474;9.138;2023-03-19T05:04:28;2.72;;;1.70;;
20084;SDS011;10202;48.474;9.138;2023-03-19T05:06:59;4.18;;;2.05;;
20084;SDS011;10202;48.474;9.138;2023-03-19T05:09:28;5.75;;;2.80;;
20084;SDS011;10202;48.474;9.138;2023-03-19T05:11:55;7.13;;;3.13;;
20084;SDS011;10202;48.474;9.138;2023-03-19T05:14:24;4.43;;;3.10;;
20084;SDS011;10202;48.474;9.138;2023-03-19T05:17:04;4.15;;;3.08;;
20084;SDS011;10202;48.474;9.138;2023-03-19T05:19:50;5.88;;;3.25;;
20084;SDS011;10202;48.474;9.138;2023-03-19T05:22:18;6.47;;;2.92;;
20084;SDS011;10202;48.474;9.138;2023-03-19T05:24:48;4.78;;;3.10;;
20084;SDS011;10202;48.474;9.138;2023-03-19T05:27:18;3.55;;;2.80;;
20084;SDS011;10202;48.474;9.138;2023-03-19T05:29:52;3.45;;;2.70;;
20084;SDS011;10202;48.474;9.138;2023-03-19T05:32:37;3.85;;;2.78;;
20084;SDS011;10202;48.474;9.138;2023-03-19T05:35:07;4.13;;;3.20;;
20084;SDS011;10202;48.474;9.138;2023-03-19T05:37:36;9.40;;;3.50;;
20084;SDS011;10202;48.474;9.138;2023-03-19T05:40:05;4.90;;;3.28;;
20084;SDS011;10202;48.474;9.138;2023-03-19T05:42:35;4.70;;;3.13;;
20084;SDS011;10202;48.474;9.138;2023-03-19T05:45:05;4.22;;;3.35;;
20084;SDS011;10202;48.474;9.138;2023-03-19T05:47:45;5.20;;;3.08;;
20084;SDS011;10202;48.474;9.138;2023-03-19T05:52:58;5.65;;;3.47;;
20084;SDS011;10202;48.474;9.138;2023-03-19T05:55:25;5.05;;;3.15;;
20084;SDS011;10202;48.474;9.138;2023-03-19T05:58:01;4.82;;;3.20;;
20084;SDS011;10202;48.474;9.138;2023-03-19T06:00:28;5.07;;;2.80;;
20084;SDS011;10202;48.474;9.138;2023-03-19T06:02:53;2.47;;;1.92;;
20084;SDS011;10202;48.474;9.138;2023-03-19T06:05:47;2.25;;;1.60;;
20084;SDS011;10202;48.474;9.138;2023-03-19T06:08:25;3.65;;;1.50;;
20084;SDS011;10202;48.474;9.138;2023-03-19T06:11:14;2.25;;;1.25;;
20084;SDS011;10202;48.474;9.138;2023-03-19T06:13:47;4.82;;;2.53;;
20084;SDS011;10202;48.474;9.138;2023-03-19T06:16:17;6.22;;;3.45;;
20084;SDS011;10202;48.474;9.138;2023-03-19T06:18:50;4.95;;;3.70;;
20084;SDS011;10202;48.474;9.138;2023-03-19T06:21:16;6.32;;;3.50;;
20084;SDS011;10202;48.474;9.138;2023-03-19T06:23:42;7.28;;;3.30;;
20084;SDS011;10202;48.474;9.138;2023-03-19T06:26:18;8.00;;;2.92;;
20084;SDS011;10202;48.474;9.138;2023-03-19T06:28:50;6.38;;;3.40;;
20084;SDS011;10202;48.474;9.138;2023-03-19T06:31:22;4.00;;;3.38;;
20084;SDS011;10202;48.474;9.138;2023-03-19T06:33:52;8.32;;;4.40;;
20084;SDS011;10202;48.474;9.138;2023-03-19T06:36:24;6.30;;;3.78;;
20084;SDS011;10202;48.474;9.138;2023-03-19T06:38:55;6.25;;;4.10;;
20084;SDS011;10202;48.474;9.138;2023-03-19T06:41:21;6.25;;;3.75;;
20084;SDS011;10202;48.474;9.138;2023-03-19T06:43:49;5.53;;;3.65;;
20084;SDS011;10202;48.474;9.138;2023-03-19T06:46:14;5.80;;;3.53;;
20084;SDS011;10202;48.474;9.138;2023-03-19T06:48:42;5.53;;;3.53;;
20084;SDS011;10202;48.474;9.138;2023-03-19T06:51:10;4.60;;;3.60;;
20084;SDS011;10202;48.474;9.138;2023-03-19T06:53:35;4.28;;;3.55;;
20084;SDS011;10202;48.474;9.138;2023-03-19T06:56:04;5.93;;;3.50;;
20084;SDS011;10202;48.474;9.138;2023-03-19T06:58:30;6.65;;;3.50;;
20084;SDS011;10202;48.474;9.138;2023-03-19T07:00:59;6.57;;;3.92;;
20084;SDS011;10202;48.474;9.138;2023-03-19T07:03:28;5.38;;;3.22;;
20084;SDS011;10202;48.474;9.138;2023-03-19T07:05:56;6.22;;;3.67;;
20084;SDS011;10202;48.474;9.138;2023-03-19T07:08:21;6.63;;;3.65;;
20084;SDS011;10202;48.474;9.138;2023-03-19T07:10:54;5.78;;;4.13;;
20084;SDS011;10202;48.474;9.138;2023-03-19T07:13:23;4.97;;;4.00;;
20084;SDS011;10202;48.474;9.138;2023-03-19T07:15:48;5.88;;;4.35;;
20084;SDS011;10202;48.474;9.138;2023-03-19T07:18:16;5.45;;;4.00;;
20084;SDS011;10202;48.474;9.138;2023-03-19T07:20:44;22.58;;;11.35;;
20084;SDS011;10202;48.474;9.138;2023-03-19T07:23:12;41.75;;;19.65;;
20084;SDS011;10202;48.474;9.138;2023-03-19T07:25:40;51.25;;;21.48;;
20084;SDS011;10202;48.474;9.138;2023-03-19T07:28:08;29.17;;;14.60;;
20084;SDS011;10202;48.474;9.138;2023-03-19T07:30:34;21.35;;;11.18;;
20084;SDS011;10202;48.474;9.138;2023-03-19T07:33:02;12.23;;;6.20;;
20084;SDS011;10202;48.474;9.138;2023-03-19T07:35:33;14.85;;;5.13;;
20084;SDS011;10202;48.474;9.138;2023-03-19T07:38:01;7.25;;;4.35;;
20084;SDS011;10202;48.474;9.138;2023-03-19T07:40:30;14.88;;;6.35;;
20084;SDS011;10202;48.474;9.138;2023-03-19T07:42:55;14.52;;;6.45;;
20084;SDS011;10202;48.474;9.138;2023-03-19T07:45:26;18.02;;;7.57;;
20084;SDS011;10202;48.474;9.138;2023-03-19T07:47:56;29.70;;;11.75;;
20084;SDS011;10202;48.474;9.138;2023-03-19T07:50:29;24.20;;;11.63;;
20084;SDS011;10202;48.474;9.138;2023-03-19T07:53:00;28.60;;;14.10;;
20084;SDS011;10202;48.474;9.138;2023-03-19T07:55:28;30.77;;;11.93;;
20084;SDS011;10202;48.474;9.138;2023-03-19T07:57:56;22.30;;;10.50;;
20084;SDS011;10202;48.474;9.138;2023-03-19T08:00:28;21.70;;;9.73;;
20084;SDS011;10202;48.474;9.138;2023-03-19T08:02:54;14.57;;;7.20;;
20084;SDS011;10202;48.474;9.138;2023-03-19T08:05:23;14.50;;;6.05;;
20084;SDS011;10202;48.474;9.138;2023-03-19T08:07:51;12.05;;;4.72;;
20084;SDS011;10202;48.474;9.138;2023-03-19T08:10:21;8.95;;;3.92;;
20084;SDS011;10202;48.474;9.138;2023-03-19T08:12:50;8.82;;;3.90;;
20084;SDS011;10202;48.474;9.138;2023-03-19T08:15:18;7.00;;;3.55;;
20084;SDS011;10202;48.474;9.138;2023-03-19T08:17:46;9.45;;;3.50;;
20084;SDS011;10202;48.474;9.138;2023-03-19T08:20:18;4.88;;;3.25;;
20084;SDS011;10202;48.474;9.138;2023-03-19T08:22:49;5.03;;;3.10;;
20084;SDS011;10202;48.474;9.138;2023-03-19T08:25:15;4.47;;;3.15;;
20084;SDS011;10202;48.474;9.138;2023-03-19T08:27:40;6.05;;;3.65;;
20084;SDS011;10202;48.474;9.138;2023-03-19T08:30:09;9.05;;;4.80;;
20084;SDS011;10202;48.474;9.138;2023-03-19T08:32:38;8.27;;;5.07;;
20084;SDS011;10202;48.474;9.138;2023-03-19T08:35:05;8.43;;;4.30;;
20084;SDS011;10202;48.474;9.138;2023-03-19T08:37:34;5.50;;;3.35;;
20084;SDS011;10202;48.474;9.138;2023-03-19T08:40:04;6.38;;;2.92;;
20084;SDS011;10202;48.474;9.138;2023-03-19T08:42:32;7.22;;;2.90;;
20084;SDS011;10202;48.474;9.138;2023-03-19T08:45:08;2.67;;;2.05;;
20084;SDS011;10202;48.474;9.138;2023-03-19T08:47:46;8.57;;;2.70;;
20084;SDS011;10202;48.474;9.138;2023-03-19T08:50:13;2.30;;;1.70;;
20084;SDS011;10202;48.474;9.138;2023-03-19T08:52:41;3.72;;;1.45;;
20084;SDS011;10202;48.474;9.138;2023-03-19T08:55:09;3.50;;;1.45;;
20084;SDS011;10202;48.474;9.138;2023-03-19T08:57:39;3.47;;;1.75;;
20084;SDS011;10202;48.474;9.138;2023-03-19T09:00:10;3.75;;;1.50;;
20084;SDS011;10202;48.474;9.138;2023-03-19T09:02:40;1.30;;;1.20;;
20084;SDS011;10202;48.474;9.138;2023-03-19T09:05:11;1.35;;;1.25;;
20084;SDS011;10202;48.474;9.138;2023-03-19T09:07:39;3.92;;;1.70;;
20084;SDS011;10202;48.474;9.138;2023-03-19T09:10:06;5.32;;;1.60;;
20084;SDS011;10202;48.474;9.138;2023-03-19T09:12:35;5.32;;;1.60;;
20084;SDS011;10202;48.474;9.138;2023-03-19T09:15:00;2.25;;;1.60;;
20084;SDS011;10202;48.474;9.138;2023-03-19T09:17:26;3.72;;;1.67;;
20084;SDS011;10202;48.474;9.138;2023-03-19T09:19:54;3.28;;;1.80;;
20084;SDS011;10202;48.474;9.138;2023-03-19T09:22:25;2.67;;;1.70;;
20084;SDS011;10202;48.474;9.138;2023-03-19T09:24:50;3.72;;;1.88;;
20084;SDS011;10202;48.474;9.138;2023-03-19T09:27:19;4.60;;;2.03;;
20084;SDS011;10202;48.474;9.138;2023-03-19T09:29:47;2.67;;;1.83;;
20084;SDS011;10202;48.474;9.138;2023-03-19T09:32:15;3.95;;;1.80;;
20084;SDS011;10202;48.474;9.138;2023-03-19T09:34:45;5.13;;;1.92;;
20084;SDS011;10202;48.474;9.138;2023-03-19T09:37:18;6.88;;;1.40;;
20084;SDS011;10202;48.474;9.138;2023-03-19T09:39:48;3.22;;;1.80;;
20084;SDS011;10202;48.474;9.138;2023-03-19T09:45:27;1.83;;;1.50;;
20084;SDS011;10202;48.474;9.138;2023-03-19T09:47:56;3.33;;;2.08;;
20084;SDS011;10202;48.474;9.138;2023-03-19T09:50:29;4.00;;;1.73;;
20084;SDS011;10202;48.474;9.138;2023-03-19T10:00:49;7.43;;;1.98;;
20084;SDS011;10202;48.474;9.138;2023-03-19T10:06:23;3.25;;;2.13;;
20084;SDS011;10202;48.474;9.138;2023-03-19T10:12:14;4.47;;;1.95;;
20084;SDS011;10202;48.474;9.138;2023-03-19T10:18:06;2.50;;;1.67;;
20084;SDS011;10202;48.474;9.138;2023-03-19T10:26:04;3.95;;;1.75;;
20084;SDS011;10202;48.474;9.138;2023-03-19T10:28:36;5.78;;;1.90;;
20084;SDS011;10202;48.474;9.138;2023-03-19T10:37:05;2.97;;;1.80;;
20084;SDS011;10202;48.474;9.138;2023-03-19T10:39:44;4.13;;;1.98;;
20084;SDS011;10202;48.474;9.138;2023-03-19T10:42:20;2.75;;;1.80;;
20084;SDS011;10202;48.474;9.138;2023-03-19T10:47:54;4.57;;;1.90;;
20084;SDS011;10202;48.474;9.138;2023-03-19T10:55:38;2.75;;;1.70;;
20084;SDS011;10202;48.474;9.138;2023-03-19T10:58:28;2.83;;;2.00;;
20084;SDS011;10202;48.474;9.138;2023-03-19T11:00:58;4.63;;;1.77;;
20084;SDS011;10202;48.474;9.138;2023-03-19T11:03:33;5.95;;;2.00;;
20084;SDS011;10202;48.474;9.138;2023-03-19T11:08:55;4.90;;;2.55;;
20084;SDS011;10202;48.474;9.138;2023-03-19T11:11:35;3.42;;;2.28;;
20084;SDS011;10202;48.474;9.138;2023-03-19T11:14:24;4.32;;;1.98;;
20084;SDS011;10202;48.474;9.138;2023-03-19T11:17:15;5.15;;;2.25;;
20084;SDS011;10202;48.474;9.138;2023-03-19T11:19:55;3.20;;;2.17;;
20084;SDS011;10202;48.474;9.138;2023-03-19T11:22:30;2.28;;;1.83;;
20084;SDS011;10202;48.474;9.138;2023-03-19T11:25:14;2.80;;;1.70;;
20084;SDS011;10202;48.474;9.138;2023-03-19T11:27:46;2.63;;;1.80;;
20084;SDS011;10202;48.474;9.138;2023-03-19T11:30:32;3.40;;;1.98;;
20084;SDS011;10202;48.474;9.138;2023-03-19T11:36:28;5.82;;;2.05;;
20084;SDS011;10202;48.474;9.138;2023-03-19T11:45:17;3.80;;;2.05;;
20084;SDS011;10202;48.474;9.138;2023-03-19T11:48:22;2.25;;;1.75;;
20084;SDS011;10202;48.474;9.138;2023-03-19T11:51:12;2.35;;;1.70;;
20084;SDS011;10202;48.474;9.138;2023-03-19T11:54:52;4.35;;;2.03;;
20084;SDS011;10202;48.474;9.138;2023-03-19T11:57:58;4.63;;;1.83;;
20084;SDS011;10202;48.474;9.138;2023-03-19T12:00:45;3.88;;;1.65;;
20084;SDS011;10202;48.474;9.138;2023-03-19T12:06:53;6.43;;;1.90;;
20084;SDS011;10202;48.474;9.138;2023-03-19T12:12:59;5.10;;;2.45;;
20084;SDS011;10202;48.474;9.138;2023-03-19T12:15:19;5.00;;;1.95;;
20084;SDS011;10202;48.474;9.138;2023-03-19T12:21:10;3.10;;;1.60;;
20084;SDS011;10202;48.474;9.138;2023-03-19T12:24:01;3.97;;;2.00;;
20084;SDS011;10202;48.474;9.138;2023-03-19T12:26:47;3.85;;;1.90;;
20084;SDS011;10202;48.474;9.138;2023-03-19T12:35:03;2.13;;;1.92;;
20084;SDS011;10202;48.474;9.138;2023-03-19T12:43:35;2.00;;;1.80;;
20084;SDS011;10202;48.474;9.138;2023-03-19T12:52:22;4.10;;;1.90;;
20084;SDS011;10202;48.474;9.138;2023-03-19T12:57:53;3.65;;;1.98;;
20084;SDS011;10202;48.474;9.138;2023-03-19T13:00:24;2.90;;;1.98;;
20084;SDS011;10202;48.474;9.138;2023-03-19T13:03:40;4.70;;;1.98;;
20084;SDS011;10202;48.474;9.138;2023-03-19T13:06:42;5.32;;;1.98;;
20084;SDS011;10202;48.474;9.138;2023-03-19T13:11:59;4.28;;;2.17;;
20084;SDS011;10202;48.474;9.138;2023-03-19T13:17:34;3.92;;;1.95;;
20084;SDS011;10202;48.474;9.138;2023-03-19T13:20:23;2.05;;;1.85;;
20084;SDS011;10202;48.474;9.138;2023-03-19T13:23:02;3.97;;;2.28;;
20084;SDS011;10202;48.474;9.138;2023-03-19T13:25:41;5.82;;;2.30;;
20084;SDS011;10202;48.474;9.138;2023-03-19T13:28:17;3.42;;;1.92;;
20084;SDS011;10202;48.474;9.138;2023-03-19T13:30:58;3.70;;;2.03;;
20084;SDS011;10202;48.474;9.138;2023-03-19T13:33:48;3.38;;;2.08;;
20084;SDS011;10202;48.474;9.138;2023-03-19T13:36:39;2.78;;;1.90;;
20084;SDS011;10202;48.474;9.138;2023-03-19T13:39:12;2.05;;;1.77;;
20084;SDS011;10202;48.474;9.138;2023-03-19T13:47:00;3.55;;;2.28;;
20084;SDS011;10202;48.474;9.138;2023-03-19T13:58:42;4.70;;;2.30;;
20084;SDS011;10202;48.474;9.138;2023-03-19T14:01:02;3.22;;;2.00;;
20084;SDS011;10202;48.474;9.138;2023-03-19T14:03:31;5.07;;;2.00;;
20084;SDS011;10202;48.474;9.138;2023-03-19T14:06:04;2.33;;;1.70;;
20084;SDS011;10202;48.474;9.138;2023-03-19T14:08:56;3.55;;;2.28;;
20084;SDS011;10202;48.474;9.138;2023-03-19T14:11:22;6.38;;;1.90;;
20084;SDS011;10202;48.474;9.138;2023-03-19T14:13:48;4.53;;;1.90;;
20084;SDS011;10202;48.474;9.138;2023-03-19T14:16:20;5.07;;;1.85;;
20084;SDS011;10202;48.474;9.138;2023-03-19T14:18:50;5.35;;;1.83;;
20084;SDS011;10202;48.474;9.138;2023-03-19T14:21:31;2.13;;;1.60;;
20084;SDS011;10202;48.474;9.138;2023-03-19T14:26:59;1.67;;;1.27;;
20084;SDS011;10202;48.474;9.138;2023-03-19T14:29:36;2.88;;;1.13;;
20084;SDS011;10202;48.474;9.138;2023-03-19T14:32:08;1.15;;;1.00;;
20084;SDS011;10202;48.474;9.138;2023-03-19T14:34:42;1.77;;;1.08;;
20084;SDS011;10202;48.474;9.138;2023-03-19T14:37:21;1.83;;;0.98;;
20084;SDS011;10202;48.474;9.138;2023-03-19T14:39:53;1.20;;;0.93;;
20084;SDS011;10202;48.474;9.138;2023-03-19T14:42:25;1.90;;;1.20;;
20084;SDS011;10202;48.474;9.138;2023-03-19T14:45:19;1.55;;;1.30;;
20084;SDS011;10202;48.474;9.138;2023-03-19T14:53:55;3.00;;;1.30;;
20084;SDS011;10202;48.474;9.138;2023-03-19T14:56:40;2.33;;;1.20;;
20084;SDS011;10202;48.474;9.138;2023-03-19T14:59:11;2.55;;;1.50;;
20084;SDS011;10202;48.474;9.138;2023-03-19T15:01:40;1.60;;;1.33;;
20084;SDS011;10202;48.474;9.138;2023-03-19T15:04:20;2.53;;;1.83;;
20084;SDS011;10202;48.474;9.138;2023-03-19T15:06:50;2.85;;;1.40;;
20084;SDS011;10202;48.474;9.138;2023-03-19T15:17:23;1.42;;;1.27;;
20084;SDS011;10202;48.474;9.138;2023-03-19T15:19:54;2.22;;;1.67;;
20084;SDS011;10202;48.474;9.138;2023-03-19T15:22:29;3.65;;;1.42;;
20084;SDS011;10202;48.474;9.138;2023-03-19T15:25:06;3.55;;;1.73;;
20084;SDS011;10202;48.474;9.138;2023-03-19T15:27:37;3.33;;;1.40;;
20084;SDS011;10202;48.474;9.138;2023-03-19T15:30:23;2.92;;;1.40;;
20084;SDS011;10202;48.474;9.138;2023-03-19T15:32:52;2.13;;;1.27;;
20084;SDS011;10202;48.474;9.138;2023-03-19T15:35:21;1.85;;;1.33;;
20084;SDS011;10202;48.474;9.138;2023-03-19T15:37:52;1.70;;;1.30;;
20084;SDS011;10202;48.474;9.138;2023-03-19T15:40:22;3.35;;;1.85;;
20084;SDS011;10202;48.474;9.138;2023-03-19T15:43:00;1.65;;;1.33;;
20084;SDS011;10202;48.474;9.138;2023-03-19T15:45:29;2.42;;;1.42;;
20084;SDS011;10202;48.474;9.138;2023-03-19T15:48:02;2.67;;;1.60;;
20084;SDS011;10202;48.474;9.138;2023-03-19T15:50:43;1.50;;;1.40;;
20084;SDS011;10202;48.474;9.138;2023-03-19T15:53:14;1.88;;;1.60;;
20084;SDS011;10202;48.474;9.138;2023-03-19T15:55:47;3.25;;;1.20;;
20084;SDS011;10202;48.474;9.138;2023-03-19T15:58:15;2.20;;;1.45;;
20084;SDS011;10202;48.474;9.138;2023-03-19T16:00:49;1.60;;;1.23;;
20084;SDS011;10202;48.474;9.138;2023-03-19T16:03:27;2.50;;;1.40;;
20084;SDS011;10202;48.474;9.138;2023-03-19T16:06:06;4.10;;;1.55;;
20084;SDS011;10202;48.474;9.138;2023-03-19T16:08:47;1.60;;;1.50;;
20084;SDS011;10202;48.474;9.138;2023-03-19T16:11:27;1.90;;;1.40;;
20084;SDS011;10202;48.474;9.138;2023-03-19T16:13:56;2.65;;;1.58;;
20084;SDS011;10202;48.474;9.138;2023-03-19T16:16:29;1.85;;;1.27;;
20084;SDS011;10202;48.474;9.138;2023-03-19T16:18:59;1.90;;;1.38;;
20084;SDS011;10202;48.474;9.138;2023-03-19T16:21:34;2.70;;;1.60;;
20084;SDS011;10202;48.474;9.138;2023-03-19T16:24:05;2.28;;;1.30;;
20084;SDS011;10202;48.474;9.138;2023-03-19T16:26:51;2.05;;;1.20;;
20084;SDS011;10202;48.474;9.138;2023-03-19T16:37:30;4.25;;;1.55;;
20084;SDS011;10202;48.474;9.138;2023-03-19T16:42:38;2.97;;;1.75;;
20084;SDS011;10202;48.474;9.138;2023-03-19T16:47:43;2.50;;;1.67;;
20084;SDS011;10202;48.474;9.138;2023-03-19T16:50:13;3.30;;;1.48;;
20084;SDS011;10202;48.474;9.138;2023-03-19T16:52:40;3.00;;;1.65;;
20084;SDS011;10202;48.474;9.138;2023-03-19T16:55:19;4.20;;;1.42;;
20084;SDS011;10202;48.474;9.138;2023-03-19T17:00:31;2.45;;;1.60;;
20084;SDS011;10202;48.474;9.138;2023-03-19T17:02:58;3.60;;;1.50;;
20084;SDS011;10202;48.474;9.138;2023-03-19T17:05:26;3.25;;;1.67;;
20084;SDS011;10202;48.474;9.138;2023-03-19T17:07:55;1.80;;;1.40;;
20084;SDS011;10202;48.474;9.138;2023-03-19T17:10:27;1.75;;;1.20;;
20084;SDS011;10202;48.474;9.138;2023-03-19T17:12:54;1.33;;;1.23;;
20084;SDS011;10202;48.474;9.138;2023-03-19T17:15:37;1.95;;;1.50;;
20084;SDS011;10202;48.474;9.138;2023-03-19T17:23:45;1.35;;;1.20;;
20084;SDS011;10202;48.474;9.138;2023-03-19T17:26:26;4.65;;;1.35;;
20084;SDS011;10202;48.474;9.138;2023-03-19T17:28:53;9.90;;;5.32;;
20084;SDS011;10202;48.474;9.138;2023-03-19T17:31:26;12.45;;;6.72;;
20084;SDS011;10202;48.474;9.138;2023-03-19T17:33:56;11.13;;;6.68;;
20084;SDS011;10202;48.474;9.138;2023-03-19T17:36:38;10.02;;;5.53;;
20084;SDS011;10202;48.474;9.138;2023-03-19T17:39:09;6.95;;;4.28;;
20084;SDS011;10202;48.474;9.138;2023-03-19T17:41:41;7.40;;;4.88;;
20084;SDS011;10202;48.474;9.138;2023-03-19T17:44:09;16.05;;;10.07;;
20084;SDS011;10202;48.474;9.138;2023-03-19T17:46:44;3.75;;;2.55;;
20084;SDS011;10202;48.474;9.138;2023-03-19T17:49:27;3.53;;;2.33;;
20084;SDS011;10202;48.474;9.138;2023-03-19T17:51:57;5.95;;;2.50;;
20084;SDS011;10202;48.474;9.138;2023-03-19T17:54:23;6.28;;;3.30;;